Time,TemperatureF,DewpointF,PressureIn,WindDirection,WindDirectionDegrees,WindSpeedMPH,WindSpeedGustMPH,Humidity,HourlyPrecipIn,Conditions,Clouds,dailyrainin,SolarRadiationWatts/m^2,SoftwareType,DateUTC
2013-07-13 00:05:00,71.8,65.0,29.93,NNE,15,0.0,0.0,80,0.00,,,0.01,0,weatherlink.com 1.10,2013-07-13 05:05:00,
2013-07-13 00:20:00,70.8,65.0,29.93,NNE,14,0.0,0.0,81,0.00,,,0.01,0,weatherlink.com 1.10,2013-07-13 05:20:00,
2013-07-13 00:35:00,70.1,64.0,29.93,NNE,14,0.0,0.0,82,0.00,,,0.00,0,weatherlink.com 1.10,2013-07-13 05:35:00,
2013-07-13 00:50:00,69.5,64.0,29.93,NNE,15,0.0,0.0,83,0.00,,,0.00,0,weatherlink.com 1.10,2013-07-13 05:50:00,
2013-07-13 01:05:00,68.9,64.0,29.93,NNE,14,0.0,0.0,83,0.00,,,0.00,0,weatherlink.com 1.10,2013-07-13 06:05:00,
2013-07-13 01:20:00,68.4,63.0,29.93,NNE,14,0.0,0.0,83,0.00,,,0.00,0,weatherlink.com 1.10,2013-07-13 06:20:00,
2013-07-13 01:35:00,67.9,63.0,29.93,NNE,15,0.0,0.0,84,0.00,,,0.00,0,weatherlink.com 1.10,2013-07-13 06:35:00,
2013-07-13 01:50:00,67.4,63.0,29.92,NNE,15,0.0,0.0,85,0.00,,,0.00,0,weatherlink.com 1.10,2013-07-13 06:50:00,
2013-07-13 02:05:00,67.0,62.0,29.92,NNE,14,0.0,0.0,85,0.00,,,0.00,0,weatherlink.com 1.10,2013-07-13 07:05:00,
2013-07-13 02:20:00,66.8,63.0,29.92,NNE,14,0.0,0.0,86,0.00,,,0.00,0,weatherlink.com 1.10,2013-07-13 07:20:00,
2013-07-13 02:35:00,66.3,62.0,29.92,NNE,14,0.0,0.0,85,0.00,,,0.00,0,weatherlink.com 1.10,2013-07-13 07:35:00,
2013-07-13 02:50:00,66.4,62.0,29.92,NNE,13,0.0,0.0,86,0.00,,,0.00,0,weatherlink.com 1.10,2013-07-13 07:50:00,
2013-07-13 03:05:00,66.2,62.0,29.92,NNE,14,0.0,0.0,86,0.00,,,0.00,0,weatherlink.com 1.10,2013-07-13 08:05:00,
2013-07-13 03:20:00,66.0,62.0,29.93,NNE,14,0.0,0.0,86,0.00,,,0.00,0,weatherlink.com 1.10,2013-07-13 08:20:00,
2013-07-13 03:35:00,65.7,62.0,29.92,NNE,14,0.0,0.0,86,0.00,,,0.00,0,weatherlink.com 1.10,2013-07-13 08:35:00,
2013-07-13 03:50:00,65.5,61.0,29.92,NNE,14,0.0,0.0,86,0.00,,,0.00,0,weatherlink.com 1.10,2013-07-13 08:50:00,
2013-07-13 04:05:00,65.3,61.0,29.92,NNE,14,0.0,0.0,87,0.00,,,0.00,0,weatherlink.com 1.10,2013-07-13 09:05:00,
2013-07-13 04:20:00,65.1,61.0,29.92,NNE,14,0.0,0.0,87,0.00,,,0.00,0,weatherlink.com 1.10,2013-07-13 09:20:00,
2013-07-13 04:35:00,64.8,61.0,29.92,NNE,15,0.0,0.0,87,0.00,,,0.00,0,weatherlink.com 1.10,2013-07-13 09:35:00,
2013-07-13 04:50:00,64.1,60.0,29.93,NNE,14,0.0,0.0,87,0.00,,,0.00,0,weatherlink.com 1.10,2013-07-13 09:50:00,
2013-07-13 05:05:00,63.6,60.0,29.93,NNE,15,0.0,0.0,87,0.00,,,0.00,0,weatherlink.com 1.10,2013-07-13 10:05:00,
2013-07-13 05:21:00,63.2,59.0,29.93,NNE,14,0.0,0.0,87,0.00,,,0.00,0,weatherlink.com 1.10,2013-07-13 10:21:00,
2013-07-13 05:36:00,62.7,59.0,29.93,NNE,14,0.0,0.0,88,0.00,,,0.00,0,weatherlink.com 1.10,2013-07-13 10:36:00,
2013-07-13 05:51:00,62.5,59.0,29.93,NNE,14,0.0,0.0,88,0.00,,,0.00,0,weatherlink.com 1.10,2013-07-13 10:51:00,
2013-07-13 06:06:00,62.1,59.0,29.94,NNE,14,0.0,0.0,88,0.00,,,0.00,0,weatherlink.com 1.10,2013-07-13 11:06:00,
2013-07-13 06:21:00,62.2,59.0,29.94,NNE,14,0.0,0.0,89,0.00,,,0.00,5,weatherlink.com 1.10,2013-07-13 11:21:00,
2013-07-13 06:36:00,61.8,59.0,29.95,NNE,15,0.0,0.0,89,0.00,,,0.00,11,weatherlink.com 1.10,2013-07-13 11:36:00,
2013-07-13 06:51:00,61.5,58.0,29.95,NNE,14,0.0,0.0,89,0.00,,,0.00,16,weatherlink.com 1.10,2013-07-13 11:51:00,
2013-07-13 07:06:00,61.5,58.0,29.95,NNE,14,0.0,0.0,89,0.00,,,0.00,21,weatherlink.com 1.10,2013-07-13 12:06:00,
2013-07-13 07:21:00,61.8,59.0,29.95,NNE,14,0.0,0.0,90,0.00,,,0.00,28,weatherlink.com 1.10,2013-07-13 12:21:00,
2013-07-13 07:36:00,62.6,60.0,29.96,NNE,15,0.0,0.0,90,0.00,,,0.00,33,weatherlink.com 1.10,2013-07-13 12:36:00,
2013-07-13 07:51:00,64.0,61.0,29.96,NNE,14,0.0,0.0,91,0.00,,,0.00,40,weatherlink.com 1.10,2013-07-13 12:51:00,
2013-07-13 08:06:00,66.0,63.0,29.96,NNE,14,0.0,0.0,91,0.00,,,0.00,44,weatherlink.com 1.10,2013-07-13 13:06:00,
2013-07-13 08:21:00,67.6,65.0,29.97,NNE,15,0.0,0.0,92,0.00,,,0.00,56,weatherlink.com 1.10,2013-07-13 13:21:00,
2013-07-13 08:36:00,69.2,67.0,29.97,NNE,15,0.0,0.0,91,0.00,,,0.00,174,weatherlink.com 1.10,2013-07-13 13:36:00,
2013-07-13 08:51:00,71.1,68.0,29.97,NNE,14,0.0,0.0,90,0.00,,,0.00,455,weatherlink.com 1.10,2013-07-13 13:51:00,
2013-07-13 09:06:00,73.1,68.0,29.97,NNE,14,0.0,0.0,85,0.00,,,0.00,508,weatherlink.com 1.10,2013-07-13 14:06:00,
2013-07-13 09:21:00,75.6,68.0,29.97,NNE,14,0.0,1.0,78,0.00,,,0.00,561,weatherlink.com 1.10,2013-07-13 14:21:00,
2013-07-13 09:36:00,77.0,68.0,29.97,NNE,14,0.0,1.0,74,0.00,,,0.00,610,weatherlink.com 1.10,2013-07-13 14:36:00,
2013-07-13 09:51:00,78.2,68.0,29.96,NNE,14,0.0,2.0,70,0.00,,,0.00,659,weatherlink.com 1.10,2013-07-13 14:51:00,
2013-07-13 10:06:00,79.8,68.0,29.96,NNE,14,0.0,1.0,68,0.00,,,0.00,705,weatherlink.com 1.10,2013-07-13 15:06:00,
2013-07-13 10:21:00,81.0,69.0,29.96,NNE,15,0.0,4.0,67,0.00,,,0.00,749,weatherlink.com 1.10,2013-07-13 15:21:00,
2013-07-13 10:36:00,81.9,69.0,29.96,North,4,0.0,2.0,64,0.00,,,0.00,786,weatherlink.com 1.10,2013-07-13 15:36:00,
2013-07-13 10:52:00,82.4,69.0,29.96,North,355,0.0,2.0,64,0.00,,,0.00,817,weatherlink.com 1.10,2013-07-13 15:52:00,
2013-07-13 11:07:00,84.5,69.0,29.96,ENE,76,0.0,2.0,60,0.00,,,0.00,856,weatherlink.com 1.10,2013-07-13 16:07:00,
2013-07-13 11:22:00,85.2,69.0,29.96,NE,40,0.0,4.0,58,0.00,,,0.00,944,weatherlink.com 1.10,2013-07-13 16:22:00,
2013-07-13 11:37:00,86.2,68.0,29.96,SSE,165,2.0,5.0,54,0.00,,,0.00,1025,weatherlink.com 1.10,2013-07-13 16:37:00,
2013-07-13 11:52:00,86.9,68.0,29.96,ESE,117,0.0,2.0,53,0.00,,,0.00,1016,weatherlink.com 1.10,2013-07-13 16:52:00,
2013-07-13 12:07:00,86.6,66.0,29.96,NE,51,0.0,5.0,50,0.00,,,0.00,972,weatherlink.com 1.10,2013-07-13 17:07:00,
2013-07-13 12:22:00,87.0,67.0,29.95,NNE,17,1.0,4.0,52,0.00,,,0.00,983,weatherlink.com 1.10,2013-07-13 17:22:00,
2013-07-13 12:37:00,87.7,66.0,29.95,NNE,31,0.0,4.0,49,0.00,,,0.00,1005,weatherlink.com 1.10,2013-07-13 17:37:00,
2013-07-13 12:52:00,87.2,67.0,29.95,East,96,1.0,2.0,52,0.00,,,0.00,991,weatherlink.com 1.10,2013-07-13 17:52:00,
2013-07-13 13:07:00,88.1,68.0,29.94,East,80,0.0,6.0,51,0.00,,,0.00,990,weatherlink.com 1.10,2013-07-13 18:07:00,
2013-07-13 13:22:00,88.9,66.0,29.94,ESE,107,0.0,4.0,46,0.00,,,0.00,1009,weatherlink.com 1.10,2013-07-13 18:22:00,
2013-07-13 13:37:00,89.4,66.0,29.93,SSW,197,0.0,8.0,46,0.00,,,0.00,1004,weatherlink.com 1.10,2013-07-13 18:37:00,
2013-07-13 13:52:00,89.6,66.0,29.93,SSE,149,0.0,5.0,46,0.00,,,0.00,988,weatherlink.com 1.10,2013-07-13 18:52:00,
2013-07-13 14:07:00,89.8,64.0,29.93,North,9,0.0,6.0,43,0.00,,,0.00,990,weatherlink.com 1.10,2013-07-13 19:07:00,
2013-07-13 14:22:00,89.7,65.0,29.92,NNE,33,1.0,5.0,44,0.00,,,0.00,986,weatherlink.com 1.10,2013-07-13 19:22:00,
2013-07-13 14:37:00,90.1,65.0,29.92,East,92,1.0,5.0,44,0.00,,,0.00,951,weatherlink.com 1.10,2013-07-13 19:37:00,
2013-07-13 14:52:00,91.0,64.0,29.91,NE,38,0.0,5.0,41,0.00,,,0.00,942,weatherlink.com 1.10,2013-07-13 19:52:00,
2013-07-13 15:07:00,89.8,63.0,29.90,NNE,17,0.0,4.0,41,0.00,,,0.00,902,weatherlink.com 1.10,2013-07-13 20:07:00,
2013-07-13 15:22:00,89.8,65.0,29.90,NE,35,1.0,4.0,44,0.00,,,0.00,881,weatherlink.com 1.10,2013-07-13 20:22:00,
2013-07-13 15:37:00,89.5,65.0,29.89,NNE,30,1.0,2.0,45,0.00,,,0.00,782,weatherlink.com 1.10,2013-07-13 20:37:00,
2013-07-13 15:52:00,89.8,68.0,29.89,NNE,24,0.0,5.0,48,0.00,,,0.00,485,weatherlink.com 1.10,2013-07-13 20:52:00,
2013-07-13 16:07:00,88.8,67.0,29.88,NNW,348,0.0,2.0,48,0.00,,,0.00,475,weatherlink.com 1.10,2013-07-13 21:07:00,
2013-07-13 16:22:00,87.8,66.0,29.88,NE,45,2.0,4.0,49,0.00,,,0.00,355,weatherlink.com 1.10,2013-07-13 21:22:00,
2013-07-13 16:37:00,88.0,65.0,29.88,ESE,102,0.0,2.0,47,0.00,,,0.00,385,weatherlink.com 1.10,2013-07-13 21:37:00,
2013-07-13 16:52:00,87.8,69.0,29.88,NE,45,0.0,4.0,53,0.00,,,0.00,420,weatherlink.com 1.10,2013-07-13 21:52:00,
2013-07-13 17:07:00,87.4,67.0,29.88,ESE,121,0.0,4.0,51,0.00,,,0.00,485,weatherlink.com 1.10,2013-07-13 22:07:00,
2013-07-13 17:22:00,87.1,66.0,29.88,East,98,0.0,1.0,49,0.00,,,0.00,355,weatherlink.com 1.10,2013-07-13 22:22:00,
2013-07-13 17:37:00,86.4,66.0,29.88,East,99,0.0,1.0,50,0.00,,,0.00,232,weatherlink.com 1.10,2013-07-13 22:37:00,
2013-07-13 17:52:00,85.7,69.0,29.88,East,100,0.0,1.0,57,0.00,,,0.00,153,weatherlink.com 1.10,2013-07-13 22:52:00,
2013-07-13 18:07:00,85.3,68.0,29.88,East,99,0.0,2.0,56,0.00,,,0.00,160,weatherlink.com 1.10,2013-07-13 23:07:00,
2013-07-13 18:22:00,85.2,68.0,29.89,East,98,0.0,0.0,57,0.00,,,0.00,144,weatherlink.com 1.10,2013-07-13 23:22:00,
2013-07-13 18:37:00,84.8,69.0,29.89,East,98,0.0,0.0,59,0.00,,,0.00,95,weatherlink.com 1.10,2013-07-13 23:37:00,
2013-07-13 18:52:00,84.1,69.0,29.89,East,98,0.0,0.0,60,0.00,,,0.00,69,weatherlink.com 1.10,2013-07-13 23:52:00,
2013-07-13 19:07:00,83.3,68.0,29.90,East,99,0.0,0.0,60,0.00,,,0.00,56,weatherlink.com 1.10,2013-07-14 00:07:00,
2013-07-13 19:22:00,82.6,68.0,29.90,East,98,0.0,0.0,62,0.00,,,0.00,26,weatherlink.com 1.10,2013-07-14 00:22:00,
2013-07-13 19:37:00,81.9,68.0,29.90,East,98,0.0,0.0,62,0.00,,,0.00,23,weatherlink.com 1.10,2013-07-14 00:37:00,
2013-07-13 19:52:00,81.3,68.0,29.90,East,99,0.0,0.0,64,0.00,,,0.00,7,weatherlink.com 1.10,2013-07-14 00:52:00,
2013-07-13 20:07:00,80.5,68.0,29.90,East,100,0.0,0.0,65,0.00,,,0.00,0,weatherlink.com 1.10,2013-07-14 01:07:00,
2013-07-13 20:22:00,79.6,67.0,29.90,East,100,0.0,1.0,65,0.00,,,0.00,0,weatherlink.com 1.10,2013-07-14 01:22:00,
2013-07-13 20:37:00,79.5,67.0,29.90,East,99,0.0,1.0,65,0.00,,,0.00,0,weatherlink.com 1.10,2013-07-14 01:37:00,
2013-07-13 20:53:00,79.3,67.0,29.91,NE,40,0.0,2.0,66,0.00,,,0.00,0,weatherlink.com 1.10,2013-07-14 01:53:00,
2013-07-13 21:08:00,79.0,67.0,29.91,NE,44,0.0,0.0,66,0.00,,,0.00,0,weatherlink.com 1.10,2013-07-14 02:08:00,
2013-07-13 21:23:00,79.0,67.0,29.91,ENE,58,1.0,4.0,67,0.00,,,0.00,0,weatherlink.com 1.10,2013-07-14 02:23:00,
2013-07-13 21:38:00,78.9,67.0,29.92,East,84,0.0,0.0,67,0.00,,,0.00,0,weatherlink.com 1.10,2013-07-14 02:38:00,
2013-07-13 21:53:00,78.6,67.0,29.92,East,83,0.0,0.0,68,0.00,,,0.00,0,weatherlink.com 1.10,2013-07-14 02:53:00,
2013-07-13 22:08:00,78.2,67.0,29.93,East,84,0.0,1.0,69,0.00,,,0.00,0,weatherlink.com 1.10,2013-07-14 03:08:00,
2013-07-13 22:23:00,77.6,67.0,29.93,East,84,0.0,1.0,70,0.00,,,0.00,0,weatherlink.com 1.10,2013-07-14 03:23:00,
2013-07-13 22:38:00,76.9,67.0,29.92,East,85,0.0,0.0,71,0.00,,,0.00,0,weatherlink.com 1.10,2013-07-14 03:38:00,
2013-07-13 22:53:00,76.2,67.0,29.92,East,84,0.0,0.0,73,0.00,,,0.00,0,weatherlink.com 1.10,2013-07-14 03:53:00,
2013-07-13 23:08:00,75.6,67.0,29.93,East,84,0.0,0.0,74,0.00,,,0.00,0,weatherlink.com 1.10,2013-07-14 04:08:00,
2013-07-13 23:23:00,75.0,67.0,29.93,East,84,0.0,0.0,75,0.00,,,0.00,0,weatherlink.com 1.10,2013-07-14 04:23:00,
2013-07-13 23:38:00,74.4,66.0,29.93,East,84,0.0,0.0,76,0.00,,,0.00,0,weatherlink.com 1.10,2013-07-14 04:38:00,
2013-07-13 23:53:00,73.9,66.0,29.93,East,84,0.0,0.0,77,0.00,,,0.00,0,weatherlink.com 1.10,2013-07-14 04:53:00,